createdAt,value
2018-08-04T00:01:32.970Z,7.47
2018-08-04T00:04:15.805Z,7.47
2018-08-04T00:06:59.230Z,7.00
2018-08-04T00:09:34.329Z,7.43
2018-08-04T00:12:09.559Z,6.57
2018-08-04T00:14:53.884Z,8.13
2018-08-04T00:17:34.222Z,7.17
2018-08-04T00:20:10.389Z,7.53
2018-08-04T00:22:44.253Z,7.80
2018-08-04T00:25:19.290Z,8.50
2018-08-04T00:30:38.194Z,5.97
2018-08-04T00:33:12.484Z,4.37
2018-08-04T00:35:50.120Z,5.20
2018-08-04T00:38:25.920Z,6.37
2018-08-04T00:41:05.137Z,6.17
2018-08-04T00:43:38.940Z,5.60
2018-08-04T00:46:13.035Z,5.37
2018-08-04T00:48:45.488Z,5.30
2018-08-04T00:51:24.254Z,5.40
2018-08-04T00:54:01.443Z,5.13
2018-08-04T00:56:43.556Z,4.83
2018-08-04T01:02:03.059Z,4.87
2018-08-04T01:04:56.501Z,5.27
2018-08-04T01:07:32.418Z,5.67
2018-08-04T01:10:13.054Z,6.23
2018-08-04T03:21:38.858Z,6.10
2018-08-04T03:24:15.567Z,6.10
2018-08-04T03:29:19.831Z,5.70
2018-08-04T03:31:53.640Z,5.90
2018-08-04T03:34:28.957Z,6.40
2018-08-04T04:17:28.537Z,6.30
2018-08-04T04:22:31.574Z,7.00
2018-08-04T04:27:37.236Z,5.30
2018-08-04T04:32:40.983Z,5.10
2018-08-04T04:35:13.467Z,5.80
2018-08-04T04:37:47.970Z,5.70
2018-08-04T04:40:20.780Z,6.40
2018-08-04T04:42:59.279Z,6.07
2018-08-04T04:45:31.844Z,6.30
2018-08-04T04:48:05.012Z,6.07
2018-08-04T04:53:45.178Z,6.63
2018-08-04T04:56:17.809Z,5.50
2018-08-04T04:58:50.563Z,5.30
2018-08-04T05:01:23.756Z,6.05
2018-08-04T05:03:56.847Z,6.17
2018-08-04T05:06:29.403Z,5.60
2018-08-04T05:09:02.164Z,5.00
2018-08-04T05:11:35.808Z,5.90
2018-08-04T05:14:08.500Z,5.27
2018-08-04T05:16:41.232Z,5.83
2018-08-04T05:19:13.900Z,5.00
2018-08-04T05:21:46.518Z,5.37
2018-08-04T05:24:19.876Z,5.90
2018-08-04T05:26:52.447Z,4.80
2018-08-04T05:29:25.128Z,5.17
2018-08-04T05:31:57.809Z,5.80
2018-08-04T05:34:30.543Z,6.23
2018-08-04T05:37:03.303Z,6.47
2018-08-04T05:39:35.938Z,5.87
2018-08-04T05:42:09.487Z,5.40
2018-08-04T05:44:42.110Z,6.27
2018-08-04T05:47:14.595Z,5.43
2018-08-04T05:49:47.282Z,5.00
2018-08-04T05:52:19.914Z,4.77
2018-08-04T05:54:52.556Z,4.93
2018-08-04T05:57:25.576Z,4.90
2018-08-04T05:59:58.543Z,4.90
2018-08-04T06:02:31.352Z,4.60
2018-08-04T06:05:04.158Z,4.03
2018-08-04T06:07:36.837Z,5.37
2018-08-04T06:10:10.053Z,5.10
2018-08-04T06:12:42.679Z,5.27
2018-08-04T06:15:15.623Z,4.97
2018-08-04T06:17:48.345Z,5.10
2018-08-04T06:20:20.955Z,5.20
2018-08-04T06:22:53.758Z,4.50
2018-08-04T06:25:26.391Z,4.73
2018-08-04T06:27:59.047Z,4.70
2018-08-04T06:30:31.672Z,5.43
2018-08-04T06:33:04.539Z,4.97
2018-08-04T06:35:37.259Z,4.80
2018-08-04T06:38:10.141Z,5.57
2018-08-04T06:40:42.761Z,5.73
2018-08-04T06:43:15.471Z,5.53
2018-08-04T06:45:48.095Z,5.00
2018-08-04T06:48:20.753Z,5.70
2018-08-04T06:50:53.447Z,4.73
2018-08-04T06:53:26.271Z,5.50
2018-08-04T06:55:58.909Z,5.63
2018-08-04T06:58:32.203Z,5.83
2018-08-04T07:01:04.892Z,6.53
2018-08-04T07:03:37.759Z,5.53
2018-08-04T07:06:10.429Z,6.87
2018-08-04T07:08:41.619Z,5.97
2018-08-04T07:11:14.259Z,5.80
2018-08-04T07:14:20.524Z,6.17
2018-08-04T07:16:58.425Z,6.33
2018-08-04T07:22:52.753Z,5.60
2018-08-04T07:28:46.881Z,5.07
2018-08-04T07:31:19.390Z,5.77
2018-08-04T07:33:51.773Z,5.33
2018-08-04T07:36:23.304Z,5.73
2018-08-04T07:38:55.765Z,6.00
2018-08-04T07:41:28.409Z,5.70
2018-08-04T07:44:01.022Z,5.80
2018-08-04T07:46:33.541Z,5.50
2018-08-04T07:49:05.985Z,4.63
2018-08-04T07:51:38.511Z,5.13
2018-08-04T07:54:11.002Z,5.33
2018-08-04T07:56:43.444Z,5.33
2018-08-04T07:59:16.261Z,5.30
2018-08-04T08:01:48.687Z,5.37
2018-08-04T08:04:19.767Z,5.90
2018-08-04T08:06:52.816Z,5.37
2018-08-04T08:09:25.279Z,6.23
2018-08-04T08:11:58.229Z,5.83
2018-08-04T08:14:30.767Z,5.73
2018-08-04T08:17:03.470Z,5.47
2018-08-04T08:19:36.110Z,6.07
2018-08-04T08:22:09.589Z,5.63
2018-08-04T08:24:42.098Z,6.33
2018-08-04T08:27:14.583Z,5.73
2018-08-04T08:29:47.048Z,5.10
2018-08-04T08:32:19.613Z,5.53
2018-08-04T08:34:52.107Z,5.40
2018-08-04T08:37:24.591Z,5.10
2018-08-04T08:39:56.995Z,3.73
2018-08-04T08:42:29.480Z,4.30
2018-08-04T08:45:02.220Z,5.77
2018-08-04T08:47:34.805Z,4.63
2018-08-04T08:50:08.681Z,4.20
2018-08-04T08:52:41.291Z,5.07
2018-08-04T08:55:13.852Z,5.37
2018-08-04T08:57:44.996Z,5.23
2018-08-04T09:00:18.010Z,5.40
2018-08-04T09:02:50.404Z,5.03
2018-08-04T09:05:22.801Z,6.00
2018-08-04T09:07:55.307Z,5.63
2018-08-04T09:10:27.768Z,5.33
2018-08-04T09:13:00.381Z,4.90
2018-08-04T09:15:32.979Z,5.63
2018-08-04T09:18:05.566Z,5.73
2018-08-04T09:20:38.193Z,5.53
2018-08-04T09:23:10.896Z,5.87
2018-08-04T09:25:43.585Z,5.33
2018-08-04T09:28:16.010Z,5.47
2018-08-04T09:30:48.492Z,5.33
2018-08-04T09:33:20.878Z,6.17
2018-08-04T09:35:53.256Z,5.23
2018-08-04T09:38:25.271Z,5.80
2018-08-04T09:40:57.779Z,6.10
2018-08-04T09:43:30.345Z,7.27
2018-08-04T09:46:02.797Z,5.83
2018-08-04T09:48:35.299Z,6.37
2018-08-04T09:51:07.946Z,6.73
2018-08-04T09:53:40.492Z,7.30
2018-08-04T09:56:13.375Z,6.20
2018-08-04T09:58:45.855Z,6.70
2018-08-04T10:01:22.607Z,8.70
2018-08-04T10:03:56.004Z,11.47
2018-08-04T10:06:28.525Z,12.50
2018-08-04T10:09:00.986Z,11.40
2018-08-04T10:11:33.531Z,9.90
2018-08-04T10:14:06.443Z,9.67
2018-08-04T10:16:38.900Z,9.80
2018-08-04T10:19:11.377Z,9.83
2018-08-04T10:21:43.840Z,8.53
2018-08-04T10:24:16.408Z,7.93
2018-08-04T10:26:48.984Z,14.77
2018-08-04T10:29:21.439Z,9.30
2018-08-04T10:31:54.048Z,8.10
2018-08-04T10:34:26.666Z,7.60
2018-08-04T10:37:00.021Z,6.97
2018-08-04T10:39:32.508Z,7.07
2018-08-04T10:42:04.894Z,6.97
2018-08-04T10:44:37.361Z,7.47
2018-08-04T10:47:09.902Z,7.87
2018-08-04T10:49:42.398Z,8.03
2018-08-04T10:52:15.048Z,8.13
2018-08-04T10:54:47.537Z,8.53
2018-08-04T10:57:20.018Z,9.63
2018-08-04T10:59:52.523Z,8.43
2018-08-04T11:02:24.986Z,7.60
2018-08-04T11:04:57.765Z,8.17
2018-08-04T11:07:30.183Z,8.03
2018-08-04T11:10:02.768Z,8.37
2018-08-04T11:12:35.290Z,8.93
2018-08-04T11:15:07.786Z,8.40
2018-08-04T11:17:40.182Z,8.30
2018-08-04T11:20:12.711Z,9.30
2018-08-04T11:22:45.249Z,7.90
2018-08-04T11:25:17.975Z,7.60
2018-08-04T11:27:50.442Z,7.80
2018-08-04T11:30:22.931Z,9.40
2018-08-04T11:32:55.425Z,8.10
2018-08-04T11:35:27.841Z,8.53
2018-08-04T11:38:00.251Z,7.13
2018-08-04T11:40:32.741Z,8.30
2018-08-04T11:43:05.686Z,7.90
2018-08-04T11:45:38.205Z,8.33
2018-08-04T11:48:11.605Z,7.70
2018-08-04T11:51:20.090Z,7.77
2018-08-04T11:53:52.568Z,7.90
2018-08-04T11:56:25.279Z,6.57
2018-08-04T11:58:57.738Z,7.20
2018-08-04T12:01:30.120Z,7.07
2018-08-04T12:04:02.531Z,7.63
2018-08-04T12:06:35.052Z,8.57
2018-08-04T12:09:10.196Z,7.80
2018-08-04T12:11:43.497Z,9.67
2018-08-04T12:14:15.934Z,16.13
2018-08-04T12:16:48.388Z,14.80
2018-08-04T12:19:20.903Z,18.50
2018-08-04T12:21:54.004Z,22.70
2018-08-04T12:27:49.154Z,22.30
2018-08-04T12:30:25.926Z,19.80
2018-08-04T12:32:58.568Z,11.77
2018-08-04T12:35:31.623Z,9.47
2018-08-04T12:38:07.609Z,8.83
2018-08-04T12:40:40.090Z,8.77
2018-08-04T12:43:13.003Z,8.23
2018-08-04T12:45:45.999Z,6.93
2018-08-04T12:48:19.612Z,8.73
2018-08-04T12:50:55.366Z,10.27
2018-08-04T12:53:27.852Z,8.27
2018-08-04T12:56:01.003Z,10.03
2018-08-04T12:58:33.393Z,10.10
2018-08-04T13:01:05.637Z,19.77
2018-08-04T13:03:37.858Z,17.93
2018-08-04T13:06:10.198Z,13.20
2018-08-04T13:08:42.417Z,13.07
2018-08-04T13:11:15.114Z,9.13
2018-08-04T13:13:47.448Z,10.90
2018-08-04T13:16:19.700Z,8.83
2018-08-04T13:18:51.993Z,9.17
2018-08-04T13:21:24.344Z,8.63
2018-08-04T13:23:56.658Z,10.27
2018-08-04T13:29:00.396Z,9.13
2018-08-04T14:38:58.413Z,4.75
2018-08-04T15:09:36.496Z,3.97
2018-08-04T15:12:09.017Z,4.50
2018-08-04T15:14:41.834Z,4.15
2018-08-04T15:17:15.123Z,4.60
2018-08-04T15:19:47.492Z,4.03
2018-08-04T15:27:21.080Z,5.20
2018-08-04T15:32:23.941Z,4.00
2018-08-04T15:34:56.338Z,4.10
2018-08-04T15:37:29.146Z,6.00
2018-08-04T15:40:05.861Z,5.40
2018-08-04T15:42:38.358Z,7.20
2018-08-04T15:45:10.732Z,6.00
2018-08-04T15:47:44.178Z,6.00
2018-08-04T15:50:18.499Z,6.05
2018-08-04T15:52:52.429Z,6.70
2018-08-04T15:55:26.441Z,5.93
2018-08-04T15:58:00.058Z,3.63
2018-08-04T16:00:34.304Z,5.10
2018-08-04T16:03:08.498Z,3.85
2018-08-04T16:05:42.492Z,3.75
2018-08-04T16:08:19.462Z,3.50
2018-08-04T16:10:53.074Z,5.00
2018-08-04T16:13:27.051Z,4.40
2018-08-04T16:15:59.440Z,5.20
2018-08-04T16:18:31.745Z,7.20
2018-08-04T16:21:04.074Z,4.90
2018-08-04T16:31:08.792Z,4.90
2018-08-04T16:33:41.245Z,4.70
2018-08-04T16:36:14.541Z,4.00
2018-08-04T16:38:46.835Z,3.58
2018-08-04T16:41:19.803Z,4.15
2018-08-04T16:43:50.825Z,4.35
2018-08-04T16:46:23.092Z,5.40
2018-08-04T16:48:55.707Z,5.33
2018-08-04T16:54:54.622Z,4.70
2018-08-04T16:57:27.677Z,4.43
2018-08-04T17:00:01.431Z,5.30
2018-08-04T17:02:33.967Z,4.83
2018-08-04T17:05:06.437Z,4.60
2018-08-04T17:07:38.895Z,3.90
2018-08-04T17:10:11.407Z,4.87
2018-08-04T17:12:43.875Z,5.15
2018-08-04T17:18:37.230Z,4.17
2018-08-04T17:21:09.596Z,6.80
2018-08-04T17:23:41.920Z,5.05
2018-08-04T17:26:13.112Z,4.87
2018-08-04T17:28:45.379Z,4.22
2018-08-04T17:43:50.730Z,4.90
2018-08-04T19:05:04.240Z,10.17
2018-08-04T19:07:36.838Z,5.87
2018-08-04T19:10:09.697Z,4.25
2018-08-04T19:12:42.713Z,4.40
2018-08-04T19:15:17.158Z,5.92
2018-08-04T19:17:49.659Z,4.40
2018-08-04T19:20:21.970Z,3.55
2018-08-04T19:22:54.539Z,3.20
2018-08-04T19:30:30.883Z,5.30
2018-08-04T19:33:03.221Z,9.20
2018-08-04T19:35:37.109Z,4.55
2018-08-04T20:00:46.001Z,7.00
2018-08-04T20:03:18.271Z,6.58
2018-08-04T20:09:15.600Z,8.97
2018-08-04T20:15:16.048Z,5.43
2018-08-04T20:17:48.610Z,5.30
2018-08-04T20:55:39.214Z,6.60
2018-08-04T20:58:11.615Z,6.40
2018-08-04T21:00:45.008Z,6.97
2018-08-04T21:03:17.361Z,7.40
2018-08-04T21:05:49.875Z,5.20
2018-08-04T21:08:22.273Z,11.90
2018-08-04T21:10:54.500Z,6.35
2018-08-04T21:13:26.727Z,6.97
2018-08-04T21:15:59.025Z,6.00
2018-08-04T21:18:30.249Z,6.33
2018-08-04T21:21:02.544Z,6.80
2018-08-04T21:23:33.941Z,8.73
2018-08-04T21:26:06.335Z,8.70
2018-08-04T21:28:38.722Z,4.80
2018-08-04T21:31:11.987Z,9.15
2018-08-04T21:46:18.357Z,7.60
2018-08-04T22:13:01.492Z,6.00
2018-08-04T22:56:29.803Z,6.30
2018-08-04T23:02:23.410Z,6.63
2018-08-04T23:04:55.704Z,6.93
2018-08-04T23:07:28.007Z,7.43
2018-08-04T23:10:00.271Z,7.40
2018-08-04T23:12:32.564Z,9.70
2018-08-04T23:15:04.960Z,8.93
2018-08-04T23:20:58.314Z,11.33
2018-08-04T23:23:31.728Z,8.87
2018-08-04T23:26:04.838Z,10.70
2018-08-04T23:28:36.970Z,10.83
2018-08-04T23:31:09.107Z,10.20
2018-08-04T23:33:41.907Z,8.67
2018-08-04T23:36:14.556Z,9.27
2018-08-04T23:38:47.920Z,8.03
2018-08-04T23:41:20.853Z,8.70
2018-08-04T23:43:54.091Z,6.77
2018-08-04T23:46:27.565Z,7.17
2018-08-04T23:49:00.008Z,5.93
2018-08-04T23:51:32.287Z,6.57
2018-08-04T23:54:04.612Z,7.03
2018-08-04T23:56:36.953Z,7.23
2018-08-04T23:59:09.048Z,27.33
